• Join FlightAware (Why Join?)
  • Login
  • US Flag 
05:56PM EDT


 

Airport Tracker/Info


-or-


 

Live Flight TrackerFlight Track Log ✈ SWA2009 ✈ 06-Apr-2013 ✈ KMKE - KLAS

Flight Track Log - Related Links

Times and Time Zones

All times are in EDT time to prevent confusion due to time zone crossing. See the SWA2009 flight status page for this flight to view local times or setup timezone preferences in your user account.

Time Position Orientation Groundspeed Altitude Reporting Facility
EDT Latitude Longitude Course Direction KTS MPH feet Rate Location/Type
03:55PM 42.9608 -88.0508 284° West 234 269 7,300  Level Chicago Center
03:56PM 42.9747 -88.1492 281° West 229 264 10,600 2,580 Climbing Chicago Center
03:57PM 42.9803 -88.2447 275° West 247 284 12,600 1,800 Climbing Chicago Center
03:59PM 42.9839 -88.3636 272° West 303 349 14,400 2,220 Climbing Chicago Center
04:00PM 42.9878 -88.4953 272° West 343 395 17,200 2,580 Climbing Chicago Center
04:01PM 42.9892 -88.6317 271° West 354 407 19,800 2,400 Climbing Chicago Center
04:02PM 42.9892 -88.7750 270° West 371 427 22,200 2,220 Climbing Chicago Center
04:03PM 42.9911 -88.9233 271° West 384 442 24,400 1,980 Climbing Chicago Center
04:04PM 42.9936 -89.0744 271° West 393 452 26,300 1,800 Climbing Chicago Center
04:05PM 42.9889 -89.2550 268° West 412 474 28,200 1,740 Climbing Chicago Center
04:06PM 42.9686 -89.4119 260° West 417 480 29,900 1,740 Climbing Chicago Center
04:07PM 42.9469 -89.5669 259° West 416 479 31,800 1,920 Climbing Chicago Center
04:08PM 42.9292 -89.7197 261° West 410 472 33,900 1,740 Climbing Chicago Center
04:09PM 42.9042 -89.8681 257° West 400 460 35,500 1,440 Climbing Chicago Center
04:10PM 42.8775 -90.0194 257° West 402 463 36,900 1,200 Climbing Chicago Center
04:11PM 42.8536 -90.1631 257° West 395 455 38,000 480 Climbing Chicago Center
04:12PM 42.8306 -90.3058 258° West 390 449 38,000  Level Chicago Center
04:13PM 42.8019 -90.4778 257° West 391 450 38,000  Level Chicago Center
04:14PM 42.7758 -90.6200 256° West 391 450 38,000  Level Chicago Center
04:15PM 42.7503 -90.7658 257° West 398 458 38,000  Level Chicago Center
04:16PM 42.7250 -90.9117 257° West 400 460 38,000  Level Chicago Center
04:17PM 42.7011 -91.0589 258° West 401 461 38,000  Level Chicago Center
04:18PM 42.6742 -91.2058 256° West 403 464 38,000  Level Chicago Center
04:19PM 42.6425 -91.3819 256° West 400 460 38,000  Level Chicago Center
04:20PM 42.6150 -91.5283 256° West 397 457 38,000  Level Chicago Center
04:21PM 42.5886 -91.6750 256° West 396 456 38,000  Level Chicago Center
04:22PM 42.5611 -91.8208 256° West 397 457 38,000  Level Chicago Center
04:23PM 42.5350 -91.9650 256° West 395 455 38,000  Level Chicago Center
04:24PM 42.5078 -92.1083 256° West 395 455 38,000  Level Chicago Center
04:25PM 42.4856 -92.2253 256° West 396 456 38,000  Level Minneapolis Center
04:26PM 42.4581 -92.3683 255° West 395 455 38,000  Level Minneapolis Center
04:27PM 42.4256 -92.5411 256° West 396 456 38,000  Level Minneapolis Center
04:28PM 42.3972 -92.6856 255° West 399 459 38,000  Level Minneapolis Center
04:29PM 42.3697 -92.8303 256° West 399 459 38,000  Level Minneapolis Center
04:30PM 42.3411 -92.9750 255° West 400 460 38,000  Level Minneapolis Center
04:31PM 42.3125 -93.1192 255° West 400 460 38,000  Level Minneapolis Center
04:32PM 42.2847 -93.2642 256° West 400 460 38,000  Level Minneapolis Center
04:33PM 42.2564 -93.4089 255° West 401 461 38,000  Level Minneapolis Center
04:34PM 42.2200 -93.5794 254° West 397 457 38,000  Level Minneapolis Center
04:35PM 42.1908 -93.7231 255° West 399 459 38,000  Level Minneapolis Center
04:36PM 42.1606 -93.8675 254° West 403 464 38,000  Level Minneapolis Center
04:37PM 42.1333 -94.0064 255° West 392 451 38,000  Level Minneapolis Center
04:38PM 42.1036 -94.1497 254° West 396 456 38,000  Level Minneapolis Center
04:39PM 42.0736 -94.2942 254° West 400 460 38,000  Level Minneapolis Center
04:40PM 42.0431 -94.4400 254° West 405 466 38,000  Level Minneapolis Center
04:41PM 42.0058 -94.6131 254° West 404 465 38,000  Level Minneapolis Center
04:43PM 41.9756 -94.7569 254° West 402 463 38,000  Level Minneapolis Center
04:44PM 41.9442 -94.9019 254° West 404 465 38,000  Level Minneapolis Center
04:45PM 41.9144 -95.0450 254° West 399 459 38,000  Level Minneapolis Center
04:46PM 41.8819 -95.1889 253° West 403 464 38,000  Level Minneapolis Center
04:47PM 41.8508 -95.3325 254° West 403 464 38,000  Level Minneapolis Center
04:48PM 41.8189 -95.4753 253° West 401 461 38,000  Level Minneapolis Center
04:49PM 41.7808 -95.6456 253° West 400 460 38,000  Level Minneapolis Center
04:50PM 41.7483 -95.7886 253° West 401 461 38,000  Level Minneapolis Center
04:51PM 41.7156 -95.9317 253° West 403 464 38,000  Level Minneapolis Center
04:52PM 41.6842 -96.0744 254° West 403 464 38,000  Level Minneapolis Center
04:53PM 41.6506 -96.2169 253° West 404 465 38,000  Level Minneapolis Center
04:54PM 41.6183 -96.3606 253° West 408 470 38,000  Level Minneapolis Center
04:55PM 41.5781 -96.5303 252° West 404 465 38,000  Level Minneapolis Center
04:56PM 41.5456 -96.6736 253° West 404 465 38,000  Level Minneapolis Center
04:57PM 41.5122 -96.8131 252° West 399 459 38,000  Level Minneapolis Center
04:58PM 41.4786 -96.9525 252° West 397 457 38,000  Level Minneapolis Center
04:59PM 41.4453 -97.0917 252° West 396 456 38,000  Level Minneapolis Center
05:00PM 41.4125 -97.2306 253° West 395 455 38,000  Level Minneapolis Center
05:01PM 41.3797 -97.3669 252° West 390 449 38,000  Level Minneapolis Center
05:02PM 41.3469 -97.5025 252° West 386 444 38,000  Level Minneapolis Center
05:03PM 41.3083 -97.6586 252° West 384 442 38,000  Level Minneapolis Center
05:04PM 41.2753 -97.7936 252° West 383 441 38,000  Level Minneapolis Center
05:05PM 41.2425 -97.9286 252° West 385 443 38,000  Level Minneapolis Center
05:06PM 41.2089 -98.0633 252° West 384 442 38,000  Level Minneapolis Center
05:07PM 41.1758 -98.1972 252° West 382 440 38,000  Level Minneapolis Center
05:08PM 41.1422 -98.3311 252° West 382 440 38,000  Level Minneapolis Center
05:09PM 41.1064 -98.4736 252° West 392 451 38,000  Level Minneapolis Center
05:10PM 41.0717 -98.6103 251° West 393 452 38,000  Level Minneapolis Center
05:11PM 41.0303 -98.7714 251° West 388 447 38,000  Level Minneapolis Center
05:12PM 40.9956 -98.9050 251° West 385 443 38,000  Level Minneapolis Center
05:13PM 40.9617 -99.0386 251° West 384 442 38,000 420 Level Minneapolis Center
05:14PM 40.9372 -99.1547 254° West 383 441 38,800 720 Climbing Denver Center
05:15PM 40.9128 -99.2928 257° West 383 441 39,400 540 Climbing Denver Center
05:16PM 40.8881 -99.4322 257° West 387 445 40,000 240 Climbing Denver Center
05:17PM 40.8614 -99.5733 256° West 393 452 40,000  Level Denver Center
05:18PM 40.8356 -99.7142 256° West 394 453 40,000  Level Denver Center
05:19PM 40.8053 -99.8706 256° West 396 456 40,000  Level Denver Center
05:20PM 40.7808 -100.0028 256° West 388 447 40,000  Level Denver Center
05:21PM 40.7556 -100.1367 256° West 391 450 40,000  Level Denver Center
05:22PM 40.7258 -100.2914 256° West 389 448 40,000  Level Denver Center
05:23PM 40.7008 -100.4250 256° West 389 448 40,000  Level Denver Center
05:24PM 40.6750 -100.5583 256° West 389 448 40,000  Level Denver Center
05:25PM 40.6442 -100.7136 255° West 388 447 40,000  Level Denver Center
05:26PM 40.6222 -100.8250 255° West 389 448 40,000  Level Denver Center
05:27PM 40.5906 -100.9825 255° West 395 455 40,000  Level Denver Center
05:28PM 40.5608 -101.1381 256° West 393 452 40,000  Level Denver Center
05:29PM 40.5333 -101.2717 255° West 394 453 40,000  Level Denver Center
05:30PM 40.5019 -101.4264 255° West 392 451 40,000  Level Denver Center
05:32PM 40.4747 -101.5592 255° West 392 451 40,000  Level Denver Center
05:33PM 40.4472 -101.6936 255° West 398 458 40,000  Level Denver Center
05:34PM 40.4147 -101.8506 255° West 399 459 40,000  Level Denver Center
05:35PM 40.3858 -101.9850 254° West 401 461 40,000  Level Denver Center
05:36PM 40.3533 -102.1428 255° West 400 460 40,000  Level Denver Center
05:37PM 40.3258 -102.2747 255° West 394 453 40,000  Level Denver Center
05:38PM 40.2939 -102.4275 255° West 391 450 40,000  Level Denver Center
05:39PM 40.2656 -102.5575 254° West 389 448 40,000  Level Denver Center
05:40PM 40.2353 -102.7014 255° West 392 451 40,000  Level Denver Center
05:41PM 40.2061 -102.8392 255° West 390 449 40,000  Level Denver Center
05:42PM 40.1753 -102.9756 254° West 390 449 40,000  Level Denver Center
05:43PM 40.1444 -103.1119 254° West 388 447 40,000  Level Denver Center
05:44PM 40.1158 -103.2508 255° West 391 450 40,000  Level Denver Center
05:45PM 40.0836 -103.3875 253° West 390 449 40,000  Level Denver Center
05:46PM 40.0542 -103.5261 255° West 391 450 40,000  Level Denver Center
05:47PM 40.0175 -103.6869 253° West 394 453 40,000  Level Denver Center
05:48PM 39.9881 -103.8267 255° West 396 456 40,000  Level Denver Center
05:49PM 39.9556 -103.9642 253° West 394 453 40,000  Level Denver Center
05:50PM 39.9247 -104.1011 254° West 391 450 40,000  Level Denver Center
05:51PM 39.8931 -104.2372 253° West 390 449 40,000  Level Denver Center
05:52PM 39.8611 -104.3719 253° West 387 445 40,000  Level Denver Center
05:53PM 39.8300 -104.5067 253° West 386 444 40,000  Level Denver Center
05:54PM 39.7986 -104.6386 253° West 383 441 40,000  Level Denver Center
05:55PM 39.7683 -104.7722 254° West 406 467 40,000  Level Denver Center
05:56PM 39.7297 -104.9303 252° West 394 453 40,000  Level Denver Center
05:57PM 39.6972 -105.0639 252° West 389 448 40,000  Level Denver Center
05:58PM 39.6656 -105.1961 253° West 380 437 40,000  Level Denver Center
05:59PM 39.6339 -105.3253 252° West 373 429 40,000  Level Denver Center
06:00PM 39.6019 -105.4561 252° West 372 428 40,000  Level Denver Center
06:01PM 39.5706 -105.5856 253° West 372 428 40,000  Level Denver Center
06:02PM 39.5378 -105.7183 252° West 381 438 40,000  Level Denver Center
06:03PM 39.5061 -105.8486 253° West 372 428 40,000  Level Denver Center
06:04PM 39.4689 -106.0022 253° West 380 437 40,000  Level Denver Center
06:05PM 39.4356 -106.1344 252° West 382 440 40,000  Level Denver Center
06:06PM 39.4031 -106.2664 252° West 385 443 40,000  Level Denver Center
06:07PM 39.3714 -106.3911 252° West 384 442 40,000  Level Denver Center
06:08PM 39.3350 -106.5378 252° West 384 442 40,000  Level Denver Center
06:09PM 39.3019 -106.6658 252° West 389 448 40,000  Level Denver Center
06:11PM 39.2636 -106.8125 251° West 387 445 40,000  Level Denver Center
06:12PM 39.2308 -106.9394 252° West 388 447 40,000  Level Denver Center
06:13PM 39.1983 -107.0661 252° West 389 448 40,000  Level Denver Center
06:14PM 39.1708 -107.1717 251° West 389 448 40,000  Level Denver Center
06:15PM 39.1247 -107.3414 251° West 394 453 40,000  Level Denver Center
06:16PM 39.0872 -107.4894 252° West 390 449 40,000  Level Denver Center
06:17PM 39.0519 -107.6153 250° West 390 449 40,000  Level Denver Center
06:18PM 39.0206 -107.7394 252° West 384 442 40,000  Level Denver Center
06:19PM 38.9806 -107.8881 251° West 389 448 40,000  Level Denver Center
06:20PM 38.9469 -108.0142 251° West 389 448 40,000  Level Denver Center
06:21PM 38.9072 -108.1611 251° West 388 447 40,000  Level Denver Center
06:22PM 38.8722 -108.2861 250° West 388 447 40,000  Level Denver Center
06:23PM 38.8389 -108.4119 251° West 388 447 40,000  Level Denver Center
06:24PM 38.7983 -108.5581 250° West 389 448 40,000  Level Denver Center
06:25PM 38.7639 -108.6836 251° West 388 447 40,000  Level Denver Center
06:26PM 38.7233 -108.8292 250° West 386 444 40,000  Level Denver Center
06:27PM 38.6889 -108.9542 251° West 389 448 40,000  Level Denver Center
06:28PM 38.6536 -109.0775 250° West 385 443 40,000  Level Denver Center
06:29PM 38.6128 -109.2217 250° West 386 444 40,000  Level Denver Center
06:30PM 38.5789 -109.3450 251° West 383 441 40,000  Level Denver Center
06:31PM 38.5378 -109.4858 250° West 380 437 40,000  Level Denver Center
06:32PM 38.5033 -109.6075 250° West 379 436 40,000  Level Denver Center
06:33PM 38.4683 -109.7292 250° West 381 438 40,000  Level Denver Center
06:34PM 38.4261 -109.8711 249° West 383 441 40,000  Level Denver Center
06:35PM 38.3911 -109.9936 250° West 383 441 40,000  Level Denver Center
06:36PM 38.3483 -110.1378 249° West 388 447 40,000 -60 Level Denver Center
06:37PM 38.2972 -110.2519 240° Southwest 390 449 39,900 -600 Descending Denver Center
06:38PM 38.2425 -110.3825 242° Southwest 374 430 38,800 -1,020 Descending Denver Center
06:39PM 38.1975 -110.4897 242° Southwest 362 417 37,900 -900 Descending Denver Center
06:40PM 38.1500 -110.5989 241° Southwest 367 422 37,000 -960 Descending Denver Center
06:41PM 38.1056 -110.7119 243° Southwest 372 428 36,100 -960 Descending Salt Lake Center
06:42PM 38.0569 -110.8233 241° Southwest 375 432 35,200 -1,080 Descending Salt Lake Center
06:43PM 38.0008 -110.9483 240° Southwest 370 426 34,000 -1,140 Descending Salt Lake Center
06:44PM 37.9531 -111.0606 242° Southwest 364 419 33,000 -960 Descending Salt Lake Center
06:45PM 37.8942 -111.1936 241° Southwest 362 417 32,000 -540 Descending Denver Center
06:46PM 37.8569 -111.2825 242° Southwest 360 414 32,000  Level Salt Lake Center
06:47PM 37.8083 -111.3922 241° Southwest 358 412 32,000  Level Salt Lake Center
06:48PM 37.7597 -111.5036 241° Southwest 361 415 32,000  Level Salt Lake Center
06:49PM 37.7117 -111.6122 241° Southwest 357 411 32,000  Level Salt Lake Center
06:50PM 37.6631 -111.7219 241° Southwest 357 411 32,000  Level Salt Lake Center
06:51PM 37.6144 -111.8319 241° Southwest 359 413 32,000  Level Salt Lake Center
06:52PM 37.5647 -111.9419 240° Southwest 361 415 32,000  Level Salt Lake Center
06:53PM 37.5056 -112.0744 241° Southwest 361 415 32,000  Level Salt Lake Center
06:54PM 37.4744 -112.1403 239° Southwest 361 415 32,000  Level Los Angeles Center
06:54PM 37.4561 -112.1858 243° Southwest 363 418 32,000  Level Salt Lake Center
06:55PM 37.4050 -112.2961 240° Southwest 364 419 32,000  Level Salt Lake Center
06:56PM 37.3742 -112.3636 240° Southwest 365 420 32,000  Level Los Angeles Center
06:56PM 37.3547 -112.4092 242° Southwest 368 423 32,000  Level Salt Lake Center
06:57PM 37.3231 -112.4767 239° Southwest 368 423 32,000  Level Los Angeles Center
06:58PM 37.2719 -112.5883 240° Southwest 367 422 32,000  Level Los Angeles Center
06:59PM 37.2514 -112.6347 241° Southwest 370 426 32,000  Level Salt Lake Center
07:00PM 37.1964 -112.7531 240° Southwest 383 441 32,000  Level Salt Lake Center
07:01PM 37.1400 -112.8747 240° Southwest 397 457 32,000  Level Salt Lake Center
07:01PM 37.0958 -112.9697 240° Southwest 396 456 32,000 -60 Level Los Angeles Center
07:02PM 37.0414 -113.0886 240° Southwest 393 452 31,900 -600 Descending Los Angeles Center
07:03PM 36.9864 -113.2058 240° Southwest 392 451 30,800 -960 Descending Los Angeles Center
07:04PM 36.9319 -113.3239 240° Southwest 392 451 30,000 -420 Descending Los Angeles Center
07:05PM 36.8769 -113.4419 240° Southwest 392 451 30,000  Level Los Angeles Center
07:06PM 36.8186 -113.5675 240° Southwest 409 471 30,000 -720 Level Los Angeles Center
07:07PM 36.7708 -113.6672 239° Southwest 417 480 28,600 -2,520 Descending Los Angeles Center
07:09PM 36.6928 -113.8353 240° Southwest 403 464 24,900 -3,060 Descending Los Angeles Center
07:10PM 36.6386 -113.9511 240° Southwest 390 449 22,300 -2,580 Descending Los Angeles Center
07:11PM 36.5853 -114.0628 239° Southwest 379 436 19,700 -2,520 Descending Los Angeles Center
07:12PM 36.5356 -114.1717 240° Southwest 367 422 17,100 -2,580 Descending Los Angeles Center
07:13PM 36.4808 -114.2914 240° Southwest 355 409 14,400 -2,520 Descending Los Angeles Center
07:13PM 36.4619 -114.3389 244° Southwest 351 404 13,500 -1,860 Descending Los Angeles Center
07:14PM 36.4331 -114.3958 238° Southwest 349 402 12,500 -1,080 Descending Los Angeles Center
07:15PM 36.3722 -114.4900 231° Southwest 300 345 11,600 -1,140 Descending Los Angeles Center
07:16PM 36.2925 -114.5011 186° South 294 338 10,100 -960 Descending Los Angeles Center
07:17PM 36.2244 -114.4869 170° South 264 304 9,800 -600 Descending Los Angeles Center
07:18PM 36.1564 -114.4725 170° South 252 290 9,000 -600 Descending Los Angeles Center
07:19PM 36.1022 -114.5203 215° Southwest 231 266 8,700 -540 Descending Los Angeles Center
07:20PM 36.0742 -114.5883 243° Southwest 232 267 8,000 -360 Descending Los Angeles Center
07:21PM 36.0744 -114.6683 270° West 233 268 8,000 -120 Level Los Angeles Center
07:22PM 36.0747 -114.7481 270° West 229 264 7,800 -360 Descending Los Angeles Center
07:22PM 36.0739 -114.7625 266° West 228 262 7,600 -1,020 Descending Los Angeles Center
07:23PM 36.0731 -114.8286 269° West 222 255 6,800 -1,140 Descending Los Angeles Center
07:23PM 36.0742 -114.8403 277° West 226 260 6,500 -1,200 Descending Los Angeles Center
07:24PM 36.0742 -114.9028 270° West 206 237 5,600 -1,080 Descending Los Angeles Center
07:24PM 36.0742 -114.9128 270° West 221 254 5,400 -1,020 Descending Los Angeles Center
07:25PM 36.0728 -114.9644 268° West 182 209 4,600 -1,020 Descending Los Angeles Center
07:25PM 36.0733 -114.9761 273° West 203 234 4,400 -1,020 Descending Los Angeles Center
07:26PM 36.0736 -115.0281 270° West 182 209 3,600 -1,020 Descending Los Angeles Center
07:26PM 36.0744 -115.0372 276° West 189 217 3,400 -900 Descending Los Angeles Center
07:27PM 36.0744 -115.0808 270° West 153 176 2,800 -780 Descending Los Angeles Center
07:27PM 36.0739 -115.0922 267° West 176 203 2,600 -600 Descending Los Angeles Center
07:28PM 36.0742 -115.1419 270° West 160 184 2,000 -600 Descending Los Angeles Center
07:30PM 36.0667 -115.1500 219° Southwest  Level FlightAware Approximate